Gig Harbor, WA

3:01 PM PDT on September 26, 2016 (GMT -0700)
Reid Drive Northwest | | Change Station

Elev 164 ft 47.31 °N, 122.57 °W | Updated 1 minute ago

Clear
Clear
71.8 °F
Feels Like 76 °F
N
1.9
Wind Variable Wind from WNW
Gusts 3.1 mph

Today
High -- | Low -- °F
--% Chance of Precip.
Yesterday
High -- | Low -- °F
Precip. -- in
Pressure 30.03 in
Visibility 10.0 miles
Clouds Clear
Heat Index 76 °F
Dew Point 59 °F
Humidity 64%
Rainfall 0.00 in
Snow Depth Not available.
7:03 AM 6:58 PM
Waning Crescent, 16% visible
METAR KTIW 262153Z 17004KT 10SM CLR 23/12 A3003 RMK AO2 SLP167 T02280122
Pressure 30.03 in
Visibility 10.0 miles
Clouds Clear
Heat Index 76 °F
Dew Point 59 °F
Humidity 64%
Rainfall 0.00 in
Snow Depth Not available.
7:03 AM 6:58 PM
Waning Crescent, 16% visible
METAR KTIW 262153Z 17004KT 10SM CLR 23/12 A3003 RMK AO2 SLP167 T02280122

10-Day Weather Forecast

Almanac

Astronomy

Sep. 26, 2016 Rise Set
Actual Time
Civil Twilight
Nautical Twilight
Astronomical Twilight
Moon
Length of Visible Light
Length of Day
Tomorrow will be .
, % of the Moon is Illuminated

Today's Extremes

State Highs State Lows

Community

WunderPhotos

Upload Photos

1,941,976 photos uploaded!

WunderBlog® & News

Nearby

Air Quality

  Air Quality AQ Index Pollutant
Not available.

Snow Depth

Station Depth Elevation

Earthquake Activity

City Distance Mag. Time & Date
Minimum magnitude displayed is 2.5.

Coastal Water Temperatures

Place Temperature

Stations

Nearby Weather Stations

Station Location Temp. Windchill Dew Point Humidity Wind Precip. Elev Updated Type
                   

Watches & Warnings

There are currently no watches in effect.